Time;durP1;ratioP1;P1;durP2;ratioP2;P2;SDS_P1;SDS_P2;PMS_P1;PMS_P2;Temp;Humidity;BMP_temperature;BMP_pressure;BME280_temperature;BME280_humidity;BME280_pressure;Samples;Min_cycle;Max_cycle;Signal;HPM_P1;HPM_P2
2023/07/10 00:30:25;1639106.00;5.46;2907.71;63146.00;0.21;109.91;;;;;25.70;1.00;;;;;;2274269;55;3600;-86
2023/07/10 00:32:54;68330.00;0.23;118.87;0.00;0.00;0.62;;;;;25.60;1.00;;;;;;2280238;61;1123;-87
2023/07/10 00:35:23;176737.00;0.59;305.87;1472.00;0.00;3.17;;;;;25.60;1.00;;;;;;2280524;61;1435;-89
2023/07/10 00:38:00;27415.00;0.09;48.11;0.00;0.00;0.62;;;;;25.60;1.00;;;;;;2280561;61;1996;-88
2023/07/10 00:40:29;147935.00;0.49;256.25;0.00;0.00;0.62;;;;;25.20;1.00;;;;;;2280609;61;1067;-89
2023/07/10 00:43:02;159303.00;0.53;275.84;52782.00;0.18;92.00;;;;;25.40;1.00;;;;;;2280558;61;1045;-88
2023/07/10 00:45:30;135909.00;0.45;235.52;26300.00;0.09;46.18;;;;;25.30;1.00;;;;;;2280672;61;1023;-87
2023/07/10 00:48:06;293862.00;0.98;507.37;0.00;0.00;0.62;;;;;25.40;1.00;;;;;;2280549;61;1753;-87
2023/07/10 00:50:40;310460.00;1.03;535.90;20954.00;0.07;36.92;;;;;25.30;1.00;;;;;;2280590;61;935;-87
2023/07/10 00:53:19;532074.00;1.77;917.07;227816.00;0.76;393.79;;;;;25.20;1.00;;;;;;2280531;61;1002;-86
2023/07/10 00:55:47;217579.00;0.73;376.18;62822.00;0.21;109.35;;;;;25.20;1.00;;;;;;2280583;61;1716;-86
2023/07/10 00:58:24;0.00;0.00;0.62;0.00;0.00;0.62;;;;;25.20;1.00;;;;;;2280573;61;1923;-86
2023/07/10 01:01:07;169827.00;0.57;293.97;69811.00;0.23;121.43;;;;;25.30;1.00;;;;;;2280603;61;1166;-87
2023/07/10 01:03:35;331791.00;1.11;572.56;65378.00;0.22;113.77;;;;;25.60;1.00;;;;;;2280564;61;997;-86
2023/07/10 01:06:08;444819.00;1.48;766.87;3174.00;0.01;6.12;;;;;26.00;1.00;;;;;;2280506;61;1103;-85
2023/07/10 01:08:36;289685.00;0.97;500.19;0.00;0.00;0.62;;;;;26.20;1.00;;;;;;2280553;61;1330;-87
2023/07/10 01:11:03;325239.00;1.08;561.30;33931.00;0.11;59.39;;;;;26.40;1.00;;;;;;2280517;61;983;-88
2023/07/10 01:13:31;0.00;0.00;0.62;0.00;0.00;0.62;;;;;26.40;1.00;;;;;;2280513;61;1093;-86
2023/07/10 01:15:58;145895.00;0.49;252.73;0.00;0.00;0.62;;;;;26.50;1.00;;;;;;2280545;61;1115;-89
2023/07/10 01:18:27;393468.00;1.31;678.58;75466.00;0.25;131.20;;;;;26.50;1.00;;;;;;2280352;61;1927;-88
2023/07/10 01:21:23;173733.00;0.58;300.70;0.00;0.00;0.62;;;;;26.50;1.00;;;;;;2280435;61;951;-86
2023/07/10 01:23:50;378982.00;1.26;653.68;64797.00;0.22;112.77;;;;;26.40;1.00;;;;;;2279988;61;1471;-88
2023/07/10 01:26:17;72502.00;0.24;126.08;0.00;0.00;0.62;;;;;26.50;1.00;;;;;;2280430;61;1668;-89
2023/07/10 01:28:46;97919.00;0.33;169.98;0.00;0.00;0.62;;;;;26.50;1.00;;;;;;2280531;61;1320;-89
2023/07/10 01:31:17;99523.00;0.33;172.75;0.00;0.00;0.62;;;;;26.50;1.00;;;;;;2280319;61;1161;-88
2023/07/10 01:33:48;94784.00;0.32;164.57;0.00;0.00;0.62;;;;;26.30;1.00;;;;;;2280344;61;1106;-87
2023/07/10 01:36:19;74313.00;0.25;129.21;0.00;0.00;0.62;;;;;25.90;1.00;;;;;;2280343;61;1472;-86
2023/07/10 01:38:51;30732.00;0.10;53.85;0.00;0.00;0.62;;;;;25.60;1.00;;;;;;2280368;61;1919;-88
2023/07/10 01:41:28;0.00;0.00;0.62;0.00;0.00;0.62;;;;;25.60;1.00;;;;;;2280434;61;1029;-86
2023/07/10 01:43:55;309576.00;1.03;534.38;52116.00;0.17;90.85;;;;;25.70;1.00;;;;;;2280201;61;943;-87
2023/07/10 01:46:24;165946.00;0.55;287.28;64520.00;0.22;112.29;;;;;25.90;1.00;;;;;;2280287;61;1057;-88
2023/07/10 01:48:54;198213.00;0.66;342.85;62508.00;0.21;108.81;;;;;26.10;1.00;;;;;;2280282;61;1430;-87
2023/07/10 01:51:23;458816.00;1.53;790.95;46836.00;0.16;81.71;;;;;26.10;1.00;;;;;;2280374;61;1587;-88
2023/07/10 01:53:52;299608.00;1.00;517.25;69322.00;0.23;120.59;;;;;26.10;1.00;;;;;;2280243;61;1570;-88
2023/07/10 01:56:21;239512.00;0.80;413.91;77042.00;0.26;133.93;;;;;26.00;1.00;;;;;;2280351;61;1156;-87
2023/07/10 01:58:48;276794.00;0.92;478.03;65637.00;0.22;114.22;;;;;25.90;1.00;;;;;;2280232;61;1996;-85
2023/07/10 02:01:15;491597.00;1.64;847.36;71400.00;0.24;124.18;;;;;25.90;1.00;;;;;;2280268;61;1181;-88
2023/07/10 02:03:42;257173.00;0.86;444.29;94332.00;0.31;163.79;;;;;25.80;1.00;;;;;;2280332;61;1118;-89
2023/07/10 02:06:09;287409.00;0.96;496.28;60547.00;0.20;105.42;;;;;26.10;1.00;;;;;;2280291;61;927;-86
2023/07/10 02:08:36;325211.00;1.08;561.25;69847.00;0.23;121.50;;;;;26.10;1.00;;;;;;2280349;61;1351;-90
2023/07/10 02:11:04;163261.00;0.54;282.66;66129.00;0.22;115.07;;;;;26.20;1.00;;;;;;2280305;61;1201;-87
2023/07/10 02:13:31;57631.00;0.19;100.38;0.00;0.00;0.62;;;;;25.80;1.00;;;;;;2280361;61;945;-89
2023/07/10 02:16:03;20296.00;0.07;35.78;0.00;0.00;0.62;;;;;25.50;1.00;;;;;;2280294;61;2415;-88
2023/07/10 02:18:30;188157.00;0.63;325.54;66712.00;0.22;116.08;;;;;25.50;1.00;;;;;;2280117;61;1934;-86
2023/07/10 02:20:57;289249.00;0.96;499.44;51025.00;0.17;88.96;;;;;25.60;1.00;;;;;;2280296;61;1045;-88
2023/07/10 02:23:24;284420.00;0.95;491.14;60638.00;0.20;105.58;;;;;25.60;1.00;;;;;;2280234;61;1126;-86
2023/07/10 02:25:51;364244.00;1.21;628.34;61643.00;0.21;107.32;;;;;25.60;1.00;;;;;;2280231;61;2250;-87
2023/07/10 02:28:19;143663.00;0.48;248.89;0.00;0.00;0.62;;;;;25.70;1.00;;;;;;2280246;61;1618;-89
2023/07/10 02:30:46;118698168.00;395.66;67744400.00;118287648.00;394.29;67043316.00;;;;;25.80;1.00;;;;;;2280009;61;1950;-88
2023/07/10 02:33:13;95417.00;0.32;165.66;0.00;0.00;0.62;;;;;25.80;1.00;;;;;;2280302;61;1000;-88
2023/07/10 02:35:40;79131.00;0.26;137.54;0.00;0.00;0.62;;;;;25.80;1.00;;;;;;2280206;61;895;-87
2023/07/10 02:38:07;0.00;0.00;0.62;0.00;0.00;0.62;;;;;25.70;1.00;;;;;;2280183;61;1998;-89
2023/07/10 02:40:34;85746.00;0.29;148.96;20638.00;0.07;36.37;;;;;25.80;1.00;;;;;;2280259;61;1109;-88
2023/07/10 02:43:01;116976448.00;389.92;64836508.00;0.00;0.00;0.62;;;;;25.90;1.00;;;;;;2280257;61;1052;-88
2023/07/10 02:45:29;510747.00;1.70;880.33;159492.00;0.53;276.16;;;;;25.70;1.00;;;;;;2280158;61;1022;-85
2023/07/10 02:47:56;37242.00;0.12;65.12;0.00;0.00;0.62;;;;;25.80;1.00;;;;;;2280208;61;2025;-87
2023/07/10 02:50:23;59459.00;0.20;103.54;0.00;0.00;0.62;;;;;25.90;1.00;;;;;;2280186;61;2098;-86
2023/07/10 02:52:50;40617.00;0.14;70.96;0.00;0.00;0.62;;;;;26.10;1.00;;;;;;2280250;61;1120;-87
2023/07/10 02:55:17;120866.00;0.40;209.58;0.00;0.00;0.62;;;;;25.80;1.00;;;;;;2280123;61;1121;-87
2023/07/10 02:57:44;219628.00;0.73;379.70;55998.00;0.19;97.56;;;;;25.10;1.00;;;;;;2280100;61;2005;-86
2023/07/10 03:00:11;109949.00;0.37;190.74;14682.00;0.05;26.06;;;;;24.80;1.00;;;;;;2280141;61;1098;-87
2023/07/10 03:02:40;0.00;0.00;0.62;0.00;0.00;0.62;;;;;24.30;1.00;;;;;;2280467;61;1158;-87
2023/07/10 03:05:07;114386.00;0.38;198.40;0.00;0.00;0.62;;;;;24.20;1.00;;;;;;2280444;61;1020;-87
2023/07/10 03:07:34;206479.00;0.69;357.08;28303.00;0.09;49.65;;;;;24.40;1.00;;;;;;2280378;61;1376;-87
2023/07/10 03:10:01;287028.00;0.96;495.62;45957.00;0.15;80.19;;;;;24.30;1.00;;;;;;2280491;61;1121;-82
2023/07/10 03:12:28;18827.00;0.06;33.24;0.00;0.00;0.62;;;;;24.50;1.00;;;;;;2280334;61;977;-87
2023/07/10 03:14:56;88153.00;0.29;153.12;0.00;0.00;0.62;;;;;25.00;1.00;;;;;;2280301;61;1045;-87
2023/07/10 03:17:23;199233.00;0.66;344.60;0.00;0.00;0.62;;;;;25.10;1.00;;;;;;2280371;61;1371;-86
2023/07/10 03:19:52;409357.00;1.36;705.89;110876.00;0.37;192.34;;;;;25.30;1.00;;;;;;2280306;61;2013;-88
2023/07/10 03:22:19;83740.00;0.28;145.50;0.00;0.00;0.62;;;;;25.60;1.00;;;;;;2280395;61;1168;-87
2023/07/10 03:24:46;96390.00;0.32;167.34;0.00;0.00;0.62;;;;;25.90;1.00;;;;;;2280343;61;1726;-87
2023/07/10 03:27:13;208194.00;0.69;360.03;0.00;0.00;0.62;;;;;26.20;1.00;;;;;;2280384;61;1623;-88
2023/07/10 03:29:40;111539.00;0.37;193.49;0.00;0.00;0.62;;;;;26.20;1.00;;;;;;2280302;61;1206;-87
2023/07/10 03:32:09;40669.00;0.14;71.05;0.00;0.00;0.62;;;;;26.30;1.00;;;;;;2280441;61;1046;-86
2023/07/10 03:34:36;201004.00;0.67;347.65;0.00;0.00;0.62;;;;;26.30;1.00;;;;;;2280372;61;915;-88
2023/07/10 03:37:04;16545.00;0.06;29.29;0.00;0.00;0.62;;;;;26.30;1.00;;;;;;2280428;61;1122;-89
2023/07/10 03:39:31;79435.00;0.26;138.06;0.00;0.00;0.62;;;;;26.30;1.00;;;;;;2280305;61;1925;-89
2023/07/10 03:41:58;165784.00;0.55;287.00;41609.00;0.14;72.67;;;;;26.10;1.00;;;;;;2280363;61;1020;-85
2023/07/10 03:44:25;195576.00;0.65;338.31;0.00;0.00;0.62;;;;;26.00;1.00;;;;;;2280377;61;930;-88
2023/07/10 03:46:52;47604.00;0.16;83.04;0.00;0.00;0.62;;;;;25.90;1.00;;;;;;2280388;61;1130;-90
2023/07/10 03:49:19;0.00;0.00;0.62;0.00;0.00;0.62;;;;;26.20;1.00;;;;;;2280395;61;1298;-88
2023/07/10 03:51:46;12471.00;0.04;22.23;0.00;0.00;0.62;;;;;26.30;1.00;;;;;;2280394;61;995;-88
2023/07/10 03:54:15;167265.00;0.56;289.56;0.00;0.00;0.62;;;;;26.40;1.00;;;;;;2280363;61;984;-87
2023/07/10 03:56:41;0.00;0.00;0.62;0.00;0.00;0.62;;;;;26.10;1.00;;;;;;2280352;61;1020;-89
2023/07/10 03:59:10;173615.00;0.58;300.49;0.00;0.00;0.62;;;;;26.00;1.00;;;;;;2280266;61;1928;-87
2023/07/10 04:01:37;0.00;0.00;0.62;0.00;0.00;0.62;;;;;26.10;1.00;;;;;;2280365;61;965;-88
2023/07/10 04:04:04;85267.00;0.28;148.13;0.00;0.00;0.62;;;;;26.10;1.00;;;;;;2280216;61;1602;-87
2023/07/10 04:06:31;63482.00;0.21;110.50;0.00;0.00;0.62;;;;;26.20;1.00;;;;;;2280291;61;1687;-89
2023/07/10 04:09:00;21893.00;0.07;38.55;0.00;0.00;0.62;;;;;26.50;1.00;;;;;;2280888;61;1623;-87
2023/07/10 04:11:29;233171.00;0.78;403.00;13992.00;0.05;24.86;;;;;26.40;1.00;;;;;;2281089;61;1090;-87
2023/07/10 04:13:56;196602.00;0.66;340.07;0.00;0.00;0.62;;;;;26.50;1.00;;;;;;2280931;61;989;-86
2023/07/10 04:18:55;380758.00;1.27;656.73;0.00;0.00;0.62;;;;;26.60;1.00;;;;;;2274158;61;1967;-89
2023/07/10 04:23:51;358291.00;1.19;618.11;0.00;0.00;0.62;;;;;26.80;1.00;;;;;;2270638;61;1365;-88
2023/07/10 04:26:20;174626.00;0.58;302.23;0.00;0.00;0.62;;;;;26.80;1.00;;;;;;2268811;61;1166;-88
2023/07/10 04:33:48;903685.00;3.01;1562.59;171945.00;0.57;297.62;;;;;26.10;1.00;;;;;;2269591;61;1406;-86
2023/07/10 04:36:15;298911.00;1.00;516.05;89774.00;0.30;155.92;;;;;26.10;1.00;;;;;;2270634;55;3783;-86
2023/07/10 04:41:15;573933.00;1.91;989.23;57779.00;0.19;100.64;;;;;26.00;1.00;;;;;;2278554;61;1439;-88
2023/07/10 04:43:42;242591.00;0.81;419.21;68523.00;0.23;119.21;;;;;25.90;1.00;;;;;;2276765;61;1000;-88
2023/07/10 04:48:38;811126.00;2.70;1400.53;68111.00;0.23;118.50;;;;;26.10;1.00;;;;;;2275399;61;1352;-89
2023/07/10 04:53:41;406542.00;1.36;701.05;70090.00;0.23;121.92;;;;;26.40;1.00;;;;;;2291182;40;3038;-89
2023/07/10 04:58:53;967958.00;3.23;1675.80;76935.00;0.26;133.74;;;;;26.60;1.00;;;;;;2266652;61;1980;-89
2023/07/10 05:01:22;132364072.00;441.21;93969552.00;42803.00;0.14;74.74;;;;;26.50;1.00;;;;;;2264488;61;1135;-89
2023/07/10 05:03:49;716389.00;2.39;1235.67;37484.00;0.12;65.54;;;;;26.50;1.00;;;;;;2264647;61;997;-90
2023/07/10 05:06:17;690514.00;2.30;1190.79;167934.00;0.56;290.71;;;;;26.90;1.00;;;;;;2264599;61;975;-90
2023/07/10 05:08:46;508978.00;1.70;877.28;31904.00;0.11;55.88;;;;;27.00;1.00;;;;;;2264536;61;1699;-90
2023/07/10 05:16:11;1303359.00;4.34;2278.25;27557.00;0.09;48.35;;;;;26.90;1.00;;;;;;709665;56;3609;-88
2023/07/10 05:18:38;995118.00;3.32;1723.83;46395.00;0.15;80.95;;;;;27.00;1.00;;;;;;2323925;56;3798;-88
2023/07/10 05:21:05;766100.00;2.55;1322.06;49826.00;0.17;86.89;;;;;26.40;1.00;;;;;;2279305;55;3801;-90
2023/07/10 05:23:32;596348.00;1.99;1027.91;52275.00;0.17;91.12;;;;;25.90;1.00;;;;;;2273132;55;3820;-84
2023/07/10 05:33:29;1267678.00;4.23;2213.07;160214.00;0.53;277.41;;;;;25.60;1.00;;;;;;2274187;61;1424;-85
2023/07/10 05:35:59;743633.00;2.48;1282.99;108102.00;0.36;187.55;;;;;25.60;1.00;;;;;;2272494;61;1689;-89
2023/07/10 05:40:53;1418725.00;4.73;2491.10;92789.00;0.31;161.12;;;;;26.00;1.00;;;;;;2275386;55;3682;-88
2023/07/10 05:43:21;1071109.00;3.57;1858.83;145927.00;0.49;252.79;;;;;26.00;1.00;;;;;;2272345;61;937;-89
2023/07/10 05:45:49;541169.00;1.80;932.74;0.00;0.00;0.62;;;;;26.10;1.00;;;;;;2272484;61;1089;-87
2023/07/10 05:48:16;883131.00;2.94;1526.51;1182.00;0.00;2.67;;;;;26.40;1.00;;;;;;2272381;61;1381;-88
2023/07/10 05:50:46;609219.00;2.03;1050.14;33399.00;0.11;58.47;;;;;26.70;1.00;;;;;;2277932;40;3736;-89
2023/07/10 05:55:45;1271626.00;4.24;2220.27;80024.00;0.27;139.08;;;;;27.10;1.00;;;;;;2292539;40;3480;-89
2023/07/10 05:58:12;899324.00;3.00;1554.93;72812.00;0.24;126.62;;;;;26.90;1.00;;;;;;2272754;61;1427;-86
2023/07/10 06:00:39;873324.00;2.91;1509.32;73759.00;0.25;128.26;;;;;26.20;1.00;;;;;;2272660;61;1932;-87
2023/07/10 06:03:06;893758.00;2.98;1545.16;132762.00;0.44;230.09;;;;;25.70;1.00;;;;;;2272578;61;1703;-88
2023/07/10 06:05:33;1406019.00;4.69;2467.49;136051.00;0.45;235.76;;;;;26.00;1.00;;;;;;2296122;40;3659;-88
2023/07/10 06:12:58;1228390.00;4.09;2141.63;29431.00;0.10;51.60;;;;;26.30;1.00;;;;;;1850508;41;3600;-88
2023/07/10 06:15:25;1285768.00;4.29;2246.08;83088.00;0.28;144.37;;;;;26.50;1.00;;;;;;2275486;55;3747;-89
2023/07/10 06:17:52;725588.00;2.42;1251.64;31381.00;0.10;54.97;;;;;27.20;1.00;;;;;;2272327;61;1390;-88
2023/07/10 06:20:19;1118791.00;3.73;1944.06;117055.00;0.39;203.00;;;;;27.90;1.00;;;;;;2288157;56;3792;-90
2023/07/10 06:22:46;1130802.00;3.77;1965.60;50050.00;0.17;87.27;;;;;28.70;1.00;;;;;;2281079;61;1701;-90
2023/07/10 06:25:13;757350.00;2.52;1306.84;89368.00;0.30;155.22;;;;;29.20;1.00;;;;;;2281360;61;1098;-90
2023/07/10 06:27:40;625691.00;2.09;1078.60;98283.00;0.33;170.61;;;;;29.90;1.00;;;;;;2281316;61;1174;-91
2023/07/10 06:30:09;678018.00;2.26;1169.14;67765.00;0.23;117.90;;;;;30.30;1.00;;;;;;2280972;61;1728;-88
2023/07/10 06:32:36;639524.00;2.13;1102.52;23439.00;0.08;41.22;;;;;30.10;1.00;;;;;;2280477;61;1034;-91
2023/07/10 06:35:03;696283.00;2.32;1200.79;137637.00;0.46;238.50;;;;;30.30;1.00;;;;;;2280496;61;1747;-87
2023/07/10 06:37:30;1242291.00;4.14;2166.87;174349.00;0.58;301.76;;;;;30.40;1.00;;;;;;2280525;61;1267;-87
2023/07/10 06:40:09;938195.00;3.13;1623.30;120761.00;0.40;209.40;;;;;30.20;1.00;;;;;;2282823;55;3891;-88
2023/07/10 06:42:36;764601.00;2.55;1319.46;44226.00;0.15;77.20;;;;;29.70;1.00;;;;;;2285281;61;855;-91
2023/07/10 06:45:03;511520.00;1.71;881.66;0.00;0.00;0.62;;;;;29.30;1.00;;;;;;2285284;61;961;-90
2023/07/10 06:47:33;736169.00;2.45;1270.02;26770.00;0.09;46.99;;;;;29.30;1.00;;;;;;2285784;60;1747;-90
2023/07/10 06:50:00;672239.00;2.24;1159.13;67694.00;0.23;117.78;;;;;29.90;1.00;;;;;;2289370;60;930;-92
2023/07/10 06:52:27;1012188.00;3.37;1754.07;83390.00;0.28;144.89;;;;;30.90;1.00;;;;;;2289221;60;1993;-89
2023/07/10 06:54:54;1324343.00;4.41;2316.73;205846.00;0.69;355.99;;;;;31.80;1.00;;;;;;2289336;60;813;-90
2023/07/10 06:57:21;1263198.00;4.21;2204.91;181890.00;0.61;314.74;;;;;32.20;1.00;;;;;;2288435;60;1423;-87
2023/07/10 07:02:17;1328804.00;4.43;2324.92;16359.00;0.05;28.96;;;;;32.00;1.00;;;;;;2281871;61;1349;-88
2023/07/10 07:04:45;1005007.00;3.35;1741.34;151928.00;0.51;263.13;;;;;31.50;1.00;;;;;;2280532;61;1045;-91
2023/07/10 07:07:12;897973.00;2.99;1552.56;112027.00;0.37;194.33;;;;;31.30;1.00;;;;;;2287514;39;3734;-87
2023/07/10 07:09:39;945457.00;3.15;1636.10;197197.00;0.66;341.10;;;;;31.20;1.00;;;;;;2276516;61;1005;-88
2023/07/10 07:12:09;977511.00;3.26;1692.68;129296.00;0.43;224.12;;;;;32.00;1.00;;;;;;2276475;61;1790;-88
2023/07/10 07:14:36;868727.00;2.90;1501.26;87843.00;0.29;152.58;;;;;33.50;1.00;;;;;;2276396;61;1742;-88
2023/07/10 07:17:05;1029497.00;3.43;1784.78;154355.00;0.51;267.31;;;;;33.50;1.00;;;;;;2276412;61;1039;-90
2023/07/10 07:19:32;762253.00;2.54;1315.37;78025.00;0.26;135.63;;;;;33.80;1.00;;;;;;2276186;61;2026;-89
2023/07/10 07:27:06;477202.00;1.59;822.58;0.00;0.00;0.62;;;;;33.50;1.00;;;;;;847209;59;2766;-88
2023/07/10 07:29:33;590949.00;1.97;1018.59;0.00;0.00;0.62;;;;;33.30;1.00;;;;;;2296777;40;3642;-88
2023/07/10 07:39:30;1454292.00;4.85;2557.40;109660.00;0.37;190.24;;;;;32.00;1.00;;;;;;2283199;55;3745;-89
2023/07/10 07:41:58;379126.00;1.26;653.92;0.00;0.00;0.62;;;;;33.30;1.00;;;;;;2287597;56;3768;-90
2023/07/10 07:44:26;427816.00;1.43;737.63;2284.00;0.01;4.58;;;;;35.10;1.00;;;;;;2280472;61;1881;-90
2023/07/10 07:46:53;612808.00;2.04;1056.34;41847.00;0.14;73.08;;;;;35.10;1.00;;;;;;2280374;61;1059;-89
2023/07/10 07:49:23;717724.00;2.39;1237.99;63737.00;0.21;110.94;;;;;34.70;1.00;;;;;;2280426;61;1618;-91
2023/07/10 07:51:51;505560.00;1.69;871.40;0.00;0.00;0.62;;;;;34.70;1.00;;;;;;2280505;61;1156;-90
2023/07/10 07:54:19;631980.00;2.11;1089.47;126862.00;0.42;219.92;;;;;35.20;1.00;;;;;;2280459;61;1013;-89
2023/07/10 07:56:46;797089.00;2.66;1376.05;23330.00;0.08;41.04;;;;;35.70;1.00;;;;;;2280321;61;1645;-91
2023/07/10 07:59:13;652754.00;2.18;1125.40;51738.00;0.17;90.19;;;;;36.10;1.00;;;;;;2280341;61;1910;-87
2023/07/10 08:01:41;607822.00;2.03;1047.73;100253.00;0.33;174.01;;;;;35.90;1.00;;;;;;2280250;61;1065;-88
2023/07/10 08:04:08;391991.00;1.31;676.04;0.00;0.00;0.62;;;;;35.00;1.00;;;;;;2280373;61;2134;-87
2023/07/10 08:06:36;642344.00;2.14;1107.39;82435.00;0.27;143.24;;;;;34.40;1.00;;;;;;2280380;61;1587;-88
2023/07/10 08:09:03;639304.00;2.13;1102.14;77367.00;0.26;134.49;;;;;34.40;1.00;;;;;;2280276;61;2358;-89
2023/07/10 08:11:30;762178.00;2.54;1315.24;9244.00;0.03;16.64;;;;;35.20;1.00;;;;;;2280286;61;914;-89
2023/07/10 08:16:29;1550310.00;5.17;2738.15;101282.00;0.34;175.78;;;;;35.60;1.00;;;;;;2282636;61;1298;-93
2023/07/10 08:24:01;1382802.00;4.61;2424.47;65919.00;0.22;114.71;;;;;37.30;1.00;;;;;;2278947;61;1055;-90
2023/07/10 08:26:30;291950.00;0.97;504.08;20032.00;0.07;35.33;;;;;37.00;1.00;;;;;;2276895;61;1606;-94
2023/07/10 08:41:28;1610313.00;5.37;2852.46;15326.00;0.05;27.18;;;;;38.30;1.00;;;;;;2278407;61;1005;-92
2023/07/10 08:49:05;1409722.00;4.70;2474.37;67878.00;0.23;118.09;;;;;36.60;1.00;;;;;;2278155;61;1339;-91
2023/07/10 09:26:11;1244114.00;4.15;2170.18;0.00;0.00;0.62;;;;;36.90;1.00;;;;;;2509203;55;3739;31
2023/07/10 09:28:40;1400902.00;4.67;2458.00;136387.00;0.45;236.34;;;;;37.10;1.00;;;;;;2101318;40;3529;-90
2023/07/10 10:51:48;1098141.00;3.66;1907.10;56189.00;0.19;97.89;;;;;35.90;1.00;;;;;;2274785;61;991;-93
2023/07/10 10:56:50;839818.00;2.80;1450.66;56515.00;0.19;98.45;;;;;36.80;1.00;;;;;;2275007;61;1348;-92
2023/07/10 11:32:21;1060261.00;3.53;1839.50;34963.00;0.12;61.17;;;;;36.00;1.00;;;;;;2266379;61;1019;-90
2023/07/10 11:34:54;101137.00;0.34;175.53;0.00;0.00;0.62;;;;;35.20;1.00;;;;;;2259585;61;836;-94
2023/07/10 11:38:09;447191.00;1.49;770.95;40870.00;0.14;71.39;;;;;35.80;1.00;;;;;;2259985;61;1711;-91
2023/07/10 11:43:48;1134180.00;3.78;1971.66;0.00;0.00;0.62;;;;;35.00;1.00;;;;;;2274392;61;1300;-92
2023/07/10 11:54:37;1402262.00;4.67;2460.52;59765.00;0.20;104.07;;;;;34.70;1.00;;;;;;2270889;61;1198;-91
2023/07/10 11:59:34;1260950.00;4.20;2200.81;48715.00;0.16;84.96;;;;;35.20;1.00;;;;;;2508281;40;3418;31
2023/07/10 12:50:00;1235916.00;4.12;2155.29;0.00;0.00;0.62;;;;;36.70;1.00;;;;;;2279160;61;1016;-91
2023/07/10 13:00:00;1255670.00;4.19;2191.20;0.00;0.00;0.62;;;;;36.60;1.00;;;;;;2511846;55;3536;31
2023/07/10 13:45:01;1483785.00;4.95;2612.65;57909.00;0.19;100.86;;;;;36.50;1.00;;;;;;2279261;61;1092;-91
2023/07/10 13:50:03;1082243.00;3.61;1878.70;0.00;0.00;0.62;;;;;36.40;1.00;;;;;;2279293;61;1320;-91
2023/07/10 13:52:30;134173.00;0.45;232.52;0.00;0.00;0.62;;;;;36.30;1.00;;;;;;2277214;61;1158;-92
2023/07/10 14:40:20;1184632.00;3.95;2062.46;10508.00;0.04;18.83;;;;;36.30;1.00;;;;;;2282933;60;1950;-91
2023/07/10 14:42:48;41525.00;0.14;72.53;0.00;0.00;0.62;;;;;36.20;1.00;;;;;;2281126;61;1802;-93
2023/07/10 14:45:16;113345.00;0.38;196.60;0.00;0.00;0.62;;;;;36.20;1.00;;;;;;2280951;61;1083;-93
2023/07/10 15:50:19;1264337.00;4.21;2206.98;129444.00;0.43;224.37;;;;;35.70;1.00;;;;;;2282980;61;1006;-91
2023/07/10 15:55:20;1379302.00;4.60;2417.99;199321.00;0.66;344.75;;;;;35.50;1.00;;;;;;2274684;61;1302;-92
2023/07/10 15:57:47;669337.00;2.23;1154.11;87663.00;0.29;152.27;;;;;35.40;1.00;;;;;;2272911;61;1375;-94
2023/07/10 16:12:49;1621727.00;5.41;2874.33;0.00;0.00;0.62;;;;;35.70;1.00;;;;;;2282489;61;1001;-93
2023/07/10 16:15:18;1306030.00;4.35;2283.15;162679.00;0.54;281.65;;;;;35.60;1.00;;;;;;2280962;61;391;-92
2023/07/10 16:20:16;1904858.00;6.35;3430.76;73023.00;0.24;126.98;;;;;35.50;1.00;;;;;;2274304;61;1946;-91
2023/07/10 16:25:18;2010384.00;6.70;3645.67;157133.00;0.52;272.10;;;;;35.20;1.00;;;;;;2278550;61;1303;-92
2023/07/10 16:30:21;2157775.00;7.19;3953.48;74302.00;0.25;129.19;;;;;34.90;1.00;;;;;;2503770;55;3581;31
2023/07/10 16:37:48;1710357.00;5.70;3045.57;161582.00;0.54;279.76;;;;;34.80;1.00;;;;;;2278413;61;1226;-90
2023/07/10 17:37:52;1261075.00;4.20;2201.04;53886.00;0.18;93.91;;;;;34.20;1.00;;;;;;2517447;55;3537;31
2023/07/10 17:52:48;1331871.00;4.44;2330.55;0.00;0.00;0.62;;;;;34.00;1.00;;;;;;2282898;61;980;-92
2023/07/10 17:55:19;220258.00;0.73;380.79;0.00;0.00;0.62;;;;;34.00;1.00;;;;;;2276668;61;1582;-95
2023/07/10 19:03:28;1486957.00;4.96;2618.60;0.00;0.00;0.62;;;;;31.30;1.00;;;;;;2518589;40;3446;31
2023/07/10 19:42:14;1707325.00;5.69;3039.67;57721.00;0.19;100.54;;;;;30.50;1.00;;;;;;2507726;41;3531;31
2023/07/10 20:33:10;1278340.00;4.26;2232.52;0.00;0.00;0.62;;;;;30.00;1.00;;;;;;2508516;40;3880;31
2023/07/10 20:40:36;668480.00;2.23;1152.62;0.00;0.00;0.62;;;;;30.00;1.00;;;;;;2280798;61;1405;-90
2023/07/10 20:43:03;239372.00;0.80;413.67;0.00;0.00;0.62;;;;;30.00;1.00;;;;;;2279094;61;1577;-90
2023/07/10 20:45:30;92510.00;0.31;160.64;0.00;0.00;0.62;;;;;30.00;1.00;;;;;;2279080;61;2383;-88
2023/07/10 20:47:59;184086.00;0.61;318.53;0.00;0.00;0.62;;;;;29.90;1.00;;;;;;2279229;61;1557;-89
2023/07/10 20:50:27;105527.00;0.35;183.11;0.00;0.00;0.62;;;;;29.90;1.00;;;;;;2279105;61;1000;-90
2023/07/10 20:52:54;271009.00;0.90;468.08;0.00;0.00;0.62;;;;;29.80;1.00;;;;;;2279061;61;1951;-88
2023/07/10 20:57:50;869698.00;2.90;1502.96;0.00;0.00;0.62;;;;;29.60;1.00;;;;;;2269028;61;1368;-90
2023/07/10 21:00:18;52144.00;0.17;90.89;0.00;0.00;0.62;;;;;29.70;1.00;;;;;;2267090;61;1066;-87
2023/07/10 21:05:14;1014048.00;3.38;1757.37;234.00;0.00;1.03;;;;;29.50;1.00;;;;;;2272615;61;1428;-89
2023/07/10 21:10:13;435747.00;1.45;751.27;0.00;0.00;0.62;;;;;29.20;1.00;;;;;;2282131;55;3636;-89
2023/07/10 21:12:40;172772.00;0.58;299.04;0.00;0.00;0.62;;;;;29.10;1.00;;;;;;2283272;60;2009;-89
2023/07/10 21:15:13;268044.00;0.89;462.98;16320.00;0.05;28.90;;;;;29.20;1.00;;;;;;2283343;60;1009;-88
2023/07/10 21:27:47;921432.00;3.07;1593.79;0.00;0.00;0.62;;;;;28.60;1.00;;;;;;2276784;60;1445;-89
2023/07/10 21:32:42;690652.00;2.30;1191.03;0.00;0.00;0.62;;;;;28.50;1.00;;;;;;2293518;55;3596;-88
2023/07/10 21:37:38;996304.00;3.32;1725.93;0.00;0.00;0.62;;;;;28.60;1.00;;;;;;2295059;55;3705;-88
2023/07/10 21:45:06;811796.00;2.71;1401.70;0.00;0.00;0.62;;;;;28.50;1.00;;;;;;2278132;61;1180;-89
2023/07/10 21:47:33;266188.00;0.89;459.79;0.00;0.00;0.62;;;;;28.50;1.00;;;;;;2281096;39;3662;-90
2023/07/10 21:52:29;548676.00;1.83;945.68;31407.00;0.10;55.02;;;;;28.00;1.00;;;;;;2274046;61;1972;-89
2023/07/10 21:54:57;353385.00;1.18;609.68;53730.00;0.18;93.64;;;;;28.00;1.00;;;;;;2272038;61;1593;-90
2023/07/10 21:59:52;772482.00;2.57;1333.17;0.00;0.00;0.62;;;;;27.90;1.00;;;;;;2273801;61;1399;-89
2023/07/10 22:14:51;927468.00;3.09;1604.41;0.00;0.00;0.62;;;;;27.70;1.00;;;;;;2273634;61;1403;-89
2023/07/10 22:19:50;1298602.00;4.33;2269.55;0.00;0.00;0.62;;;;;27.80;1.00;;;;;;2281892;39;3538;-87
2023/07/10 22:29:43;1269508.00;4.23;2216.41;0.00;0.00;0.62;;;;;27.80;1.00;;;;;;2304167;39;3670;-89
2023/07/10 22:32:12;560784.00;1.87;966.55;25265.00;0.08;44.39;;;;;27.70;1.00;;;;;;2335786;39;3674;-86
2023/07/10 22:34:39;241688.00;0.81;417.65;36327.00;0.12;63.53;;;;;27.50;1.00;;;;;;2280174;61;1679;-91
2023/07/10 22:44:35;1609310.00;5.36;2850.54;0.00;0.00;0.62;;;;;27.20;1.00;;;;;;2305201;39;3553;-88
2023/07/10 22:49:33;964392.00;3.21;1669.51;0.00;0.00;0.62;;;;;27.10;1.00;;;;;;2281961;39;3641;-87
2023/07/10 22:52:00;299387.00;1.00;516.87;0.00;0.00;0.62;;;;;27.00;1.00;;;;;;2331048;56;3772;-88
2023/07/10 22:56:55;978821.00;3.26;1695.00;0.00;0.00;0.62;;;;;27.00;1.00;;;;;;2274056;61;1388;-88
2023/07/10 23:37:02;696560.00;2.32;1201.27;13677.00;0.05;24.32;;;;;26.60;1.00;;;;;;2273473;61;1379;-88
2023/07/10 23:47:04;1383366.00;4.61;2425.51;56395.00;0.19;98.24;;;;;26.00;1.00;;;;;;2269619;61;1435;-88
2023/07/10 23:49:31;390446.00;1.30;673.38;0.00;0.00;0.62;;;;;26.00;1.00;;;;;;2267808;61;1579;-87
2023/07/10 23:51:58;144787.00;0.48;250.82;0.00;0.00;0.62;;;;;25.90;1.00;;;;;;2267815;61;1988;-87
2023/07/10 23:54:27;412849.00;1.38;711.90;0.00;0.00;0.62;;;;;25.80;1.00;;;;;;2296909;41;3777;-89